Weather History for Faribault, MN

Change the Weather History Date:

Wednesday, March 13, 2013

  Actual Average Record
Temperature  
Mean Temperature 19 °F -  
Max Temperature 28 °F 37 °F 68 °F (1990)
Min Temperature 10 °F 20 °F -15 °F (1975)
Degree Days  
Heating Degree Days 46    
Moisture  
Dew Point 14 °F    
Average Humidity 80    
Maximum Humidity 93    
Minimum Humidity 55    
Precipitation  
Precipitation 0.00 in - - ()
Sea Level Pressure  
Sea Level Pressure 30.30 in    
Wind  
Wind Speed 7 mph (WSW)    
Max Wind Speed 10 mph    
Max Gust Speed 20 mph    
Visibility 10 miles    
Events      
Averages and records for this station are not official NWS values.
T = Trace of Precipitation, MM = Missing Value Source: NWS Daily Summary

Daily Weather History Graph

Daily Weather History Graph

Search for Another Location

Airport:

Trip Planner

Search our weather history database for the weather conditions in past years. The results will help you decide how hot, cold, wet, or windy it might be!

Date:

Astronomy

Mar. 13, 2013 Rise Set
Actual Time 7:28 AM CDT 7:17 PM CDT
Civil Twilight 6:59 AM CDT 7:46 PM CDT
Nautical Twilight 6:26 AM CDT 8:19 PM CDT
Astronomical Twilight 5:52 AM CDT 8:54 PM CDT
Moon 8:02 AM CDT (3/13) 9:41 PM CDT (3/13)
Length of Visible Light 12h 46m
Length of Day
11h 48m
Waxing Crescent, 4% of the Moon is Illuminated
Mar 13
Waxing Crescent
Mar 19
First Quarter
Mar 27
Full
Apr 2
Last Quarter
Apr 10
New

Hourly Weather History & Observations

Time (CDT) Temp. Windchill Dew Point Humidity Pressure Visibility Wind Dir Wind Speed Gust Speed Precip Events Conditions
12:13 AM 17.6 °F 5.7 °F 14.0 °F 86% 30.18 in 10.0 mi WNW 10.4 mph 19.6 mph N/A   Clear
12:54 AM 17.6 °F 5.7 °F 12.2 °F 79% 30.19 in 10.0 mi WNW 10.4 mph - N/A   Clear
1:13 AM 17.6 °F 6.4 °F 12.2 °F 79% 30.20 in 10.0 mi WNW 9.2 mph - N/A   Clear
1:34 AM 17.6 °F 7.3 °F 12.2 °F 79% 30.20 in 10.0 mi WNW 8.1 mph - N/A   Clear
1:54 AM 15.8 °F 5.1 °F 12.2 °F 86% 30.21 in 10.0 mi WNW 8.1 mph - N/A   Clear
2:34 AM 15.8 °F 3.4 °F 12.2 °F 86% 30.22 in 10.0 mi WNW 10.4 mph - N/A   Clear
2:54 AM 15.8 °F 3.4 °F 12.2 °F 86% 30.23 in 10.0 mi WNW 10.4 mph - N/A   Clear
3:13 AM 15.8 °F 5.1 °F 12.2 °F 86% 30.23 in 10.0 mi WNW 8.1 mph - N/A   Clear
3:54 AM 14.0 °F 2.0 °F 12.2 °F 93% 30.24 in 10.0 mi WNW 9.2 mph - N/A   Clear
4:14 AM 14.0 °F 1.2 °F 10.4 °F 86% 30.24 in 10.0 mi WNW 10.4 mph - N/A   Clear
4:33 AM 12.2 °F 0.7 °F 10.4 °F 92% 30.24 in 10.0 mi WNW 8.1 mph - N/A   Clear
5:14 AM 12.2 °F 1.7 °F 10.4 °F 92% 30.26 in 10.0 mi WNW 6.9 mph - N/A   Clear
5:34 AM 12.2 °F 0.7 °F 10.4 °F 92% 30.27 in 10.0 mi West 8.1 mph - N/A   Clear
5:54 AM 10.4 °F -1.5 °F 8.6 °F 92% 30.28 in 10.0 mi West 8.1 mph - N/A   Clear
6:14 AM 10.4 °F -0.4 °F 8.6 °F 92% 30.29 in 10.0 mi West 6.9 mph - N/A   Clear
6:34 AM 10.4 °F -2.4 °F 8.6 °F 92% 30.29 in 10.0 mi West 9.2 mph - N/A   Clear
6:54 AM 10.4 °F -0.4 °F 8.6 °F 92% 30.30 in 10.0 mi WNW 6.9 mph - N/A   Clear
7:14 AM 10.4 °F -0.4 °F 8.6 °F 92% 30.30 in 10.0 mi WNW 6.9 mph - N/A   Clear
7:34 AM 10.4 °F -0.4 °F 8.6 °F 92% 30.31 in 10.0 mi West 6.9 mph - N/A   Clear
7:53 AM 10.4 °F 0.8 °F 8.6 °F 92% 30.31 in 10.0 mi West 5.8 mph - N/A   Clear
8:14 AM 10.4 °F -0.4 °F 8.6 °F 92% 30.32 in 10.0 mi West 6.9 mph - N/A   Clear
8:34 AM 10.4 °F 2.2 °F 8.6 °F 92% 30.32 in 10.0 mi West 4.6 mph - N/A   Clear
8:53 AM 12.2 °F 4.3 °F 8.6 °F 85% 30.33 in 10.0 mi WSW 4.6 mph - N/A   Clear
9:14 AM 12.2 °F 1.7 °F 10.4 °F 92% 30.34 in 10.0 mi West 6.9 mph - N/A   Clear
9:34 AM 14.0 °F - 10.4 °F 86% 30.34 in 10.0 mi Calm Calm - N/A   Clear
9:54 AM 15.8 °F 8.6 °F 10.4 °F 79% 30.35 in 10.0 mi West 4.6 mph - N/A   Clear
10:14 AM 17.6 °F 9.3 °F 10.4 °F 73% 30.36 in 10.0 mi West 5.8 mph - N/A   Clear
10:34 AM 17.6 °F 12.3 °F 12.2 °F 79% 30.36 in 7.0 mi West 3.5 mph - N/A   Clear
10:53 AM 19.4 °F 14.3 °F 12.2 °F 74% 30.37 in 10.0 mi West 3.5 mph - N/A   Clear
11:14 AM 19.4 °F 12.8 °F 12.2 °F 74% 30.37 in 10.0 mi WSW 4.6 mph - N/A   Clear
11:34 AM 19.4 °F 12.8 °F 12.2 °F 74% 30.37 in 10.0 mi SW 4.6 mph - N/A   Clear
11:54 AM 21.2 °F 14.9 °F 14.0 °F 74% 30.38 in 10.0 mi WSW 4.6 mph - N/A   Clear
12:14 PM 21.2 °F 13.6 °F 14.0 °F 74% 30.38 in 10.0 mi WSW 5.8 mph - N/A   Clear
12:34 PM 21.2 °F 13.6 °F 14.0 °F 74% 30.37 in 10.0 mi WSW 5.8 mph - N/A   Clear
12:54 PM 23.0 °F 14.7 °F 15.8 °F 74% 30.37 in 5.0 mi WSW 6.9 mph - N/A   Haze
1:14 PM 24.8 °F 17.9 °F 15.8 °F 69% 30.37 in 10.0 mi WSW 5.8 mph - N/A   Clear
1:34 PM 24.8 °F 16.9 °F 15.8 °F 69% 30.37 in 10.0 mi WSW 6.9 mph - N/A   Clear
1:54 PM 24.8 °F 16.9 °F 15.8 °F 69% 30.37 in 10.0 mi WSW 6.9 mph - N/A   Clear
2:14 PM 24.8 °F 16.1 °F 17.6 °F 74% 30.36 in 10.0 mi WSW 8.1 mph - N/A   Clear
2:34 PM 26.6 °F 19.1 °F 17.6 °F 69% 30.35 in 10.0 mi WSW 6.9 mph - N/A   Clear
2:54 PM 26.6 °F 19.1 °F 17.6 °F 69% 30.35 in 10.0 mi WSW 6.9 mph - N/A   Clear
3:14 PM 26.6 °F 20.0 °F 15.8 °F 64% 30.34 in 10.0 mi WSW 5.8 mph - N/A   Clear
3:34 PM 28.4 °F 21.2 °F 15.8 °F 59% 30.34 in 10.0 mi WSW 6.9 mph - N/A   Clear
3:54 PM 28.4 °F 22.2 °F 15.8 °F 59% 30.34 in 10.0 mi WSW 5.8 mph - N/A   Clear
4:14 PM 28.4 °F 19.7 °F 15.8 °F 59% 30.34 in 10.0 mi WSW 9.2 mph - N/A   Clear
4:34 PM 28.4 °F 19.7 °F 15.8 °F 59% 30.34 in 10.0 mi WSW 9.2 mph - N/A   Clear
4:54 PM 28.4 °F 21.2 °F 14.0 °F 55% 30.33 in 10.0 mi West 6.9 mph - N/A   Clear
5:14 PM 28.4 °F 22.2 °F 15.8 °F 59% 30.33 in 10.0 mi West 5.8 mph - N/A   Clear
5:34 PM 28.4 °F 23.3 °F 17.6 °F 64% 30.32 in 10.0 mi WSW 4.6 mph - N/A   Clear
5:54 PM 26.6 °F 21.2 °F 17.6 °F 69% 30.31 in 10.0 mi SSW 4.6 mph - N/A   Clear
6:14 PM 26.6 °F 18.2 °F 17.6 °F 69% 30.30 in 10.0 mi South 8.1 mph - N/A   Clear
6:34 PM 26.6 °F 20.0 °F 17.6 °F 69% 30.30 in 10.0 mi South 5.8 mph - N/A   Clear
6:54 PM 24.8 °F 19.1 °F 17.6 °F 74% 30.31 in 10.0 mi SSW 4.6 mph - N/A   Clear
7:14 PM 24.8 °F 19.1 °F 17.6 °F 74% 30.31 in 10.0 mi SSW 4.6 mph - N/A   Clear
7:34 PM 23.0 °F 17.0 °F 17.6 °F 80% 30.31 in 10.0 mi SSW 4.6 mph - N/A   Clear
7:54 PM 21.2 °F 16.4 °F 17.6 °F 86% 30.31 in 10.0 mi SSW 3.5 mph - N/A   Clear
8:14 PM 21.2 °F 16.4 °F 17.6 °F 86% 30.31 in 10.0 mi SSW 3.5 mph - N/A   Clear
8:34 PM 21.2 °F 16.4 °F 17.6 °F 86% 30.30 in 10.0 mi South 3.5 mph - N/A   Clear
8:54 PM 21.2 °F 13.6 °F 17.6 °F 86% 30.29 in 10.0 mi South 5.8 mph - N/A   Clear
9:14 PM 21.2 °F 14.9 °F 17.6 °F 86% 30.28 in 10.0 mi South 4.6 mph - N/A   Clear
9:34 PM 21.2 °F 13.6 °F 17.6 °F 86% 30.28 in 10.0 mi SSE 5.8 mph - N/A   Clear
9:54 PM 21.2 °F 13.6 °F 17.6 °F 86% 30.28 in 10.0 mi South 5.8 mph - N/A   Clear
10:14 PM 21.2 °F 14.9 °F 17.6 °F 86% 30.27 in 10.0 mi South 4.6 mph - N/A   Clear
10:34 PM 21.2 °F 13.6 °F 17.6 °F 86% 30.27 in 10.0 mi South 5.8 mph - N/A   Clear
10:54 PM 21.2 °F 12.6 °F 17.6 °F 86% 30.26 in 10.0 mi South 6.9 mph - N/A   Clear
11:14 PM 21.2 °F 12.6 °F 17.6 °F 86% 30.26 in 10.0 mi South 6.9 mph - N/A   Scattered Clouds
11:34 PM 21.2 °F 13.6 °F 17.6 °F 86% 30.26 in 10.0 mi South 5.8 mph - N/A   Scattered Clouds
11:54 PM 21.2 °F 12.6 °F 17.6 °F 86% 30.25 in 10.0 mi South 6.9 mph - N/A   Scattered Clouds